createdAt,value
2017-08-01T00:02:00.400Z,3.83
2017-08-01T00:04:26.688Z,3.63
2017-08-01T00:06:52.948Z,4.20
2017-08-01T00:09:19.227Z,5.00
2017-08-01T00:11:45.493Z,3.80
2017-08-01T00:14:11.745Z,3.87
2017-08-01T00:16:38.017Z,3.17
2017-08-01T00:19:04.273Z,3.80
2017-08-01T00:21:30.540Z,3.97
2017-08-01T00:23:56.795Z,3.50
2017-08-01T00:26:23.777Z,3.90
2017-08-01T00:28:50.041Z,4.00
2017-08-01T00:31:16.291Z,4.00
2017-08-01T00:33:43.285Z,4.13
2017-08-01T00:36:09.537Z,3.93
2017-08-01T00:38:35.792Z,3.90
2017-08-01T00:41:02.065Z,4.27
2017-08-01T00:43:28.329Z,3.60
2017-08-01T00:45:54.573Z,3.27
2017-08-01T00:48:21.569Z,4.30
2017-08-01T00:50:48.829Z,4.07
2017-08-01T00:53:16.112Z,4.27
2017-08-01T00:55:42.381Z,4.60
2017-08-01T00:58:08.633Z,3.70
2017-08-01T01:00:34.900Z,4.30
2017-08-01T01:03:01.151Z,4.37
2017-08-01T01:05:28.145Z,4.03
2017-08-01T01:07:54.459Z,3.57
2017-08-01T01:10:20.729Z,4.23
2017-08-01T01:12:46.981Z,4.63
2017-08-01T01:15:13.986Z,3.90
2017-08-01T01:17:40.421Z,4.37
2017-08-01T01:20:06.677Z,4.43
2017-08-01T01:22:33.958Z,4.70
2017-08-01T01:25:00.203Z,3.87
2017-08-01T01:27:26.457Z,3.87
2017-08-01T01:29:52.725Z,4.23
2017-08-01T01:32:19.005Z,4.17
2017-08-01T01:34:45.297Z,4.43
2017-08-01T01:37:11.573Z,4.87
2017-08-01T01:39:37.858Z,4.67
2017-08-01T01:42:04.178Z,3.77
2017-08-01T01:44:30.452Z,4.37
2017-08-01T01:46:56.740Z,4.43
2017-08-01T01:49:23.021Z,4.20
2017-08-01T01:51:49.306Z,3.73
2017-08-01T01:54:15.601Z,5.07
2017-08-01T01:56:42.862Z,4.63
2017-08-01T01:59:09.142Z,3.97
2017-08-01T02:01:35.398Z,4.60
2017-08-01T02:04:01.670Z,4.37
2017-08-01T02:06:27.977Z,4.70
2017-08-01T02:08:55.001Z,4.50
2017-08-01T02:11:21.260Z,4.77
2017-08-01T02:13:47.525Z,4.80
2017-08-01T02:16:13.774Z,4.83
2017-08-01T02:18:40.072Z,5.23
2017-08-01T02:21:06.364Z,5.20
2017-08-01T02:23:33.404Z,4.67
2017-08-01T02:25:59.685Z,4.73
2017-08-01T02:28:25.974Z,4.63
2017-08-01T02:30:53.069Z,5.40
2017-08-01T02:33:19.348Z,5.60
2017-08-01T02:35:46.357Z,4.80
2017-08-01T02:38:12.637Z,4.90
2017-08-01T02:40:38.897Z,4.77
2017-08-01T02:43:05.161Z,4.97
2017-08-01T02:45:31.408Z,4.83
2017-08-01T02:47:57.657Z,5.60
2017-08-01T02:50:23.915Z,5.47
2017-08-01T02:52:50.178Z,5.60
2017-08-01T02:55:16.452Z,6.80
2017-08-01T02:57:42.697Z,5.07
2017-08-01T03:00:08.937Z,6.03
2017-08-01T03:02:35.197Z,5.43
2017-08-01T03:05:01.453Z,5.60
2017-08-01T03:07:27.733Z,5.73
2017-08-01T03:09:54.993Z,5.43
2017-08-01T03:12:21.240Z,5.40
2017-08-01T03:14:48.233Z,5.40
2017-08-01T03:17:14.468Z,6.20
2017-08-01T03:19:40.744Z,5.57
2017-08-01T03:22:07.738Z,5.30
2017-08-01T03:24:33.980Z,5.77
2017-08-01T03:27:00.234Z,6.70
2017-08-01T03:29:26.487Z,5.77
2017-08-01T03:31:53.513Z,5.73
2017-08-01T03:34:19.773Z,5.67
2017-08-01T03:36:46.048Z,5.40
2017-08-01T03:39:12.313Z,5.27
2017-08-01T03:41:38.623Z,5.47
2017-08-01T03:44:04.913Z,5.10
2017-08-01T03:46:31.178Z,5.47
2017-08-01T03:48:57.425Z,5.97
2017-08-01T03:51:24.413Z,5.50
2017-08-01T03:53:50.652Z,5.20
2017-08-01T03:56:16.926Z,5.30
2017-08-01T03:58:43.918Z,5.67
2017-08-01T04:01:10.168Z,5.40
2017-08-01T04:03:36.417Z,5.23
2017-08-01T04:06:02.704Z,6.40
2017-08-01T04:08:28.965Z,5.50
2017-08-01T04:10:55.217Z,5.33
2017-08-01T04:13:22.200Z,5.23
2017-08-01T04:15:48.582Z,5.13
2017-08-01T04:18:14.897Z,5.47
2017-08-01T04:20:41.232Z,5.40
2017-08-01T04:23:07.500Z,5.63
2017-08-01T04:25:33.755Z,5.97
2017-08-01T04:28:00.004Z,5.57
2017-08-01T04:30:26.257Z,6.10
2017-08-01T04:32:53.260Z,5.50
2017-08-01T04:35:19.509Z,5.27
2017-08-01T04:37:45.765Z,6.37
2017-08-01T04:40:12.770Z,5.60
2017-08-01T04:42:39.037Z,5.30
2017-08-01T04:45:05.313Z,5.80
2017-08-01T04:47:31.553Z,5.17
2017-08-01T04:49:57.808Z,5.60
2017-08-01T04:52:24.060Z,6.90
2017-08-01T04:54:50.353Z,5.27
2017-08-01T04:57:16.621Z,6.00
2017-08-01T04:59:42.881Z,5.90
2017-08-01T05:02:09.154Z,5.60
2017-08-01T05:04:35.444Z,5.00
2017-08-01T05:07:01.699Z,5.20
2017-08-01T05:09:27.979Z,5.30
2017-08-01T05:11:54.229Z,5.53
2017-08-01T05:14:20.481Z,5.50
2017-08-01T05:16:46.745Z,5.60
2017-08-01T05:19:13.741Z,5.80
2017-08-01T05:21:40.021Z,5.27
2017-08-01T05:24:07.013Z,5.27
2017-08-01T05:26:33.278Z,5.03
2017-08-01T05:28:59.524Z,5.53
2017-08-01T05:31:25.776Z,5.60
2017-08-01T05:33:52.040Z,6.13
2017-08-01T05:36:18.310Z,8.23
2017-08-01T05:38:45.303Z,8.13
2017-08-01T05:41:11.579Z,5.80
2017-08-01T05:43:37.844Z,5.27
2017-08-01T05:46:04.145Z,6.03
2017-08-01T05:48:32.166Z,5.57
2017-08-01T05:50:58.429Z,5.83
2017-08-01T05:53:25.432Z,6.00
2017-08-01T05:55:51.676Z,6.13
2017-08-01T05:58:17.946Z,6.13
2017-08-01T06:00:44.247Z,7.00
2017-08-01T06:03:10.525Z,6.40
2017-08-01T06:05:36.778Z,5.60
2017-08-01T06:08:03.036Z,5.73
2017-08-01T06:10:29.329Z,5.47
2017-08-01T06:12:55.614Z,6.00
2017-08-01T06:15:22.600Z,4.63
2017-08-01T06:17:48.858Z,5.97
2017-08-01T06:20:15.122Z,5.30
2017-08-01T06:22:41.398Z,6.30
2017-08-01T06:25:07.658Z,7.60
2017-08-01T06:27:33.930Z,7.50
2017-08-01T06:30:00.174Z,6.70
2017-08-01T06:32:26.438Z,6.10
2017-08-01T06:34:52.710Z,5.70
2017-08-01T06:37:18.957Z,6.00
2017-08-01T06:39:45.430Z,6.47
2017-08-01T06:42:12.057Z,5.50
2017-08-01T06:44:38.360Z,5.70
2017-08-01T06:47:04.624Z,5.63
2017-08-01T06:49:30.887Z,5.90
2017-08-01T06:51:57.137Z,5.37
2017-08-01T06:54:23.424Z,4.87
2017-08-01T06:56:50.417Z,5.40
2017-08-01T06:59:16.685Z,6.03
2017-08-01T07:01:42.952Z,5.97
2017-08-01T07:04:09.199Z,5.23
2017-08-01T07:06:35.474Z,6.33
2017-08-01T07:09:02.542Z,5.17
2017-08-01T07:11:29.562Z,5.53
2017-08-01T07:13:55.833Z,5.30
2017-08-01T07:16:22.431Z,5.27
2017-08-01T07:18:49.693Z,6.00
2017-08-01T07:21:17.699Z,5.20
2017-08-01T07:23:43.978Z,5.77
2017-08-01T07:26:10.218Z,6.07
2017-08-01T07:28:37.237Z,6.00
2017-08-01T07:31:03.481Z,5.73
2017-08-01T07:33:29.726Z,6.10
2017-08-01T07:35:55.990Z,4.77
2017-08-01T07:38:22.237Z,5.60
2017-08-01T07:40:48.505Z,5.07
2017-08-01T07:43:15.525Z,5.67
2017-08-01T07:45:41.793Z,5.07
2017-08-01T07:48:08.052Z,5.63
2017-08-01T07:50:34.314Z,5.53
2017-08-01T07:53:00.950Z,4.57
2017-08-01T07:55:27.213Z,5.10
2017-08-01T07:57:53.466Z,5.10
2017-08-01T08:00:19.733Z,5.27
2017-08-01T08:02:45.979Z,5.07
2017-08-01T08:05:12.232Z,5.40
2017-08-01T08:07:38.532Z,5.60
2017-08-01T08:10:04.785Z,5.80
2017-08-01T08:12:31.057Z,5.27
2017-08-01T08:14:57.317Z,4.70
2017-08-01T08:17:23.598Z,5.37
2017-08-01T08:19:49.844Z,5.70
2017-08-01T08:22:16.093Z,6.00
2017-08-01T08:24:43.377Z,4.83
2017-08-01T08:27:10.385Z,5.73
2017-08-01T08:29:36.636Z,5.80
2017-08-01T08:32:02.883Z,5.90
2017-08-01T08:34:29.137Z,5.53
2017-08-01T08:36:55.413Z,4.70
2017-08-01T08:39:21.669Z,4.87
2017-08-01T08:41:48.669Z,5.50
2017-08-01T08:44:14.930Z,5.57
2017-08-01T08:46:41.925Z,5.80
2017-08-01T08:49:08.196Z,5.63
2017-08-01T08:51:34.437Z,5.40
2017-08-01T08:54:00.681Z,5.40
2017-08-01T08:56:26.946Z,5.87
2017-08-01T08:58:53.205Z,5.60
2017-08-01T09:01:19.493Z,5.30
2017-08-01T09:03:45.749Z,5.80
2017-08-01T09:06:12.009Z,5.40
2017-08-01T09:08:39.001Z,5.83
2017-08-01T09:11:05.266Z,5.27
2017-08-01T09:13:31.554Z,5.83
2017-08-01T09:15:57.813Z,5.60
2017-08-01T09:18:24.071Z,5.17
2017-08-01T09:20:51.096Z,6.00
2017-08-01T09:23:18.382Z,6.30
2017-08-01T09:25:44.675Z,5.83
2017-08-01T09:28:11.929Z,5.90
2017-08-01T09:30:38.180Z,7.20
2017-08-01T09:33:05.185Z,5.20
2017-08-01T09:35:31.472Z,6.93
2017-08-01T09:37:57.750Z,6.50
2017-08-01T09:40:24.012Z,5.50
2017-08-01T09:42:51.008Z,6.10
2017-08-01T09:45:17.271Z,6.23
2017-08-01T09:47:43.517Z,5.60
2017-08-01T09:50:09.800Z,6.07
2017-08-01T09:52:36.048Z,5.80
2017-08-01T09:55:03.309Z,6.03
2017-08-01T09:57:29.556Z,5.80
2017-08-01T09:59:55.805Z,5.87
2017-08-01T10:02:22.409Z,5.13
2017-08-01T10:04:49.410Z,5.53
2017-08-01T10:07:15.660Z,5.40
2017-08-01T10:09:41.909Z,5.70
2017-08-01T10:12:08.917Z,5.73
2017-08-01T10:14:35.206Z,6.10
2017-08-01T10:17:01.500Z,5.97
2017-08-01T10:19:27.765Z,5.70
2017-08-01T10:21:54.016Z,6.37
2017-08-01T10:24:20.266Z,6.20
2017-08-01T10:26:46.544Z,6.17
2017-08-01T10:29:12.788Z,5.80
2017-08-01T10:31:39.056Z,6.67
2017-08-01T10:34:05.321Z,6.03
2017-08-01T10:36:33.530Z,6.50
2017-08-01T10:38:59.810Z,6.60
2017-08-01T10:41:26.097Z,6.10
2017-08-01T10:43:52.341Z,5.80
2017-08-01T10:46:18.674Z,6.33
2017-08-01T10:48:45.289Z,6.87
2017-08-01T10:51:11.725Z,7.37
2017-08-01T10:53:38.000Z,6.60
2017-08-01T10:56:04.269Z,6.47
2017-08-01T10:58:30.517Z,6.60
2017-08-01T11:00:56.770Z,6.17
2017-08-01T11:03:23.046Z,6.47
2017-08-01T11:05:49.322Z,7.80
2017-08-01T11:08:15.568Z,6.43
2017-08-01T11:10:41.833Z,6.37
2017-08-01T11:13:08.089Z,6.67
2017-08-01T11:15:34.369Z,7.03
2017-08-01T11:18:01.365Z,6.77
2017-08-01T11:20:27.617Z,6.27
2017-08-01T11:22:53.869Z,6.60
2017-08-01T11:25:20.133Z,6.80
2017-08-01T11:27:46.405Z,6.30
2017-08-01T11:30:12.664Z,7.03
2017-08-01T11:32:38.925Z,7.30
2017-08-01T11:35:05.217Z,6.37
2017-08-01T11:37:32.214Z,7.30
2017-08-01T11:39:58.461Z,7.20
2017-08-01T11:42:24.722Z,6.93
2017-08-01T11:44:50.987Z,7.87
2017-08-01T11:47:17.257Z,6.80
2017-08-01T11:49:43.542Z,6.10
2017-08-01T11:52:09.798Z,7.50
2017-08-01T11:54:36.055Z,7.40
2017-08-01T11:57:02.296Z,6.93
2017-08-01T11:59:28.556Z,6.63
2017-08-01T12:01:54.886Z,6.80
2017-08-01T12:04:21.142Z,6.83
2017-08-01T12:06:47.430Z,7.40
2017-08-01T12:09:14.566Z,6.67
2017-08-01T12:11:40.857Z,7.20
2017-08-01T12:14:07.114Z,7.20
2017-08-01T12:16:34.105Z,6.70
2017-08-01T12:19:00.390Z,7.63
2017-08-01T12:21:27.376Z,6.90
2017-08-01T12:23:53.628Z,6.93
2017-08-01T12:26:19.881Z,7.47
2017-08-01T12:28:46.902Z,6.27
2017-08-01T12:31:13.178Z,7.77
2017-08-01T12:33:39.453Z,6.60
2017-08-01T12:36:05.712Z,6.70
2017-08-01T12:38:31.965Z,6.27
2017-08-01T12:40:58.213Z,6.93
2017-08-01T12:43:24.492Z,6.43
2017-08-01T12:45:51.498Z,7.13
2017-08-01T12:48:17.748Z,6.33
2017-08-01T12:50:44.348Z,6.37
2017-08-01T12:53:10.609Z,6.30
2017-08-01T12:55:36.880Z,6.10
2017-08-01T12:58:03.137Z,5.50
2017-08-01T13:00:30.661Z,6.03
2017-08-01T13:02:58.722Z,6.50
2017-08-01T13:05:25.728Z,6.23
2017-08-01T13:07:52.000Z,5.53
2017-08-01T13:10:18.993Z,5.47
2017-08-01T13:12:45.246Z,5.90
2017-08-01T13:15:11.508Z,5.30
2017-08-01T13:17:38.521Z,5.40
2017-08-01T13:20:04.807Z,5.53
2017-08-01T13:22:31.061Z,5.10
2017-08-01T13:24:57.332Z,5.60
2017-08-01T13:27:23.585Z,5.60
2017-08-01T13:29:49.838Z,5.60
2017-08-01T13:32:17.141Z,5.53
2017-08-01T13:34:44.140Z,5.60
2017-08-01T13:37:10.396Z,5.40
2017-08-01T13:39:36.652Z,5.33
2017-08-01T13:42:03.641Z,5.13
2017-08-01T13:44:29.905Z,5.10
2017-08-01T13:46:56.189Z,6.20
2017-08-01T13:49:22.436Z,5.83
2017-08-01T13:51:48.698Z,5.60
2017-08-01T13:54:14.957Z,5.23
2017-08-01T13:56:41.684Z,5.97
2017-08-01T13:59:07.935Z,5.23
2017-08-01T14:01:34.201Z,5.53
2017-08-01T14:04:00.466Z,5.63
2017-08-01T14:06:27.468Z,4.63
2017-08-01T14:08:53.748Z,6.13
2017-08-01T14:11:20.005Z,5.47
2017-08-01T14:13:46.260Z,5.20
2017-08-01T14:16:12.510Z,5.60
2017-08-01T14:18:39.517Z,5.73
2017-08-01T14:21:05.777Z,5.20
2017-08-01T14:23:32.028Z,4.93
2017-08-01T14:25:59.043Z,5.17
2017-08-01T14:28:25.289Z,5.77
2017-08-01T14:30:52.289Z,5.63
2017-08-01T14:33:19.598Z,6.10
2017-08-01T14:35:46.589Z,5.77
2017-08-01T14:38:12.853Z,5.43
2017-08-01T14:40:39.106Z,5.40
2017-08-01T14:43:06.106Z,5.90
2017-08-01T14:45:32.415Z,5.90
2017-08-01T14:47:58.744Z,5.80
2017-08-01T14:50:25.013Z,6.07
2017-08-01T14:52:51.284Z,5.70
2017-08-01T14:55:17.534Z,5.60
2017-08-01T14:57:43.800Z,5.70
2017-08-01T15:00:10.053Z,6.30
2017-08-01T15:02:37.361Z,5.33
2017-08-01T15:05:04.642Z,4.93
2017-08-01T15:07:32.045Z,5.00
2017-08-01T15:09:58.317Z,5.43
2017-08-01T15:12:24.578Z,6.13
2017-08-01T15:14:50.841Z,5.77
2017-08-01T15:17:17.090Z,5.60
2017-08-01T15:19:43.337Z,6.00
2017-08-01T15:22:10.373Z,5.57
2017-08-01T15:24:36.697Z,5.93
2017-08-01T15:27:02.965Z,5.10
2017-08-01T15:29:29.238Z,5.30
2017-08-01T15:31:55.501Z,5.77
2017-08-01T15:34:21.805Z,5.90
2017-08-01T15:36:48.090Z,5.97
2017-08-01T15:39:14.413Z,5.57
2017-08-01T15:41:40.697Z,5.40
2017-08-01T15:44:06.957Z,5.20
2017-08-01T15:46:33.968Z,5.50
2017-08-01T15:49:00.249Z,5.20
2017-08-01T15:51:26.493Z,4.83
2017-08-01T15:53:52.749Z,4.90
2017-08-01T15:56:19.009Z,5.80
2017-08-01T15:58:45.280Z,5.53
2017-08-01T16:01:11.545Z,6.17
2017-08-01T16:03:37.805Z,5.20
2017-08-01T16:06:04.808Z,6.07
2017-08-01T16:08:31.072Z,5.30
2017-08-01T16:10:58.105Z,6.73
2017-08-01T16:13:24.348Z,7.30
2017-08-01T16:15:51.353Z,6.20
2017-08-01T16:18:17.601Z,5.53
2017-08-01T16:20:43.852Z,6.27
2017-08-01T16:23:10.873Z,5.20
2017-08-01T16:25:37.129Z,5.70
2017-08-01T16:28:04.142Z,6.50
2017-08-01T16:30:30.413Z,6.20
2017-08-01T16:32:56.668Z,6.17
2017-08-01T16:35:23.951Z,5.33
2017-08-01T16:37:50.201Z,6.07
2017-08-01T16:40:16.477Z,6.93
2017-08-01T16:42:42.716Z,5.80
2017-08-01T16:45:08.966Z,5.50
2017-08-01T16:47:35.236Z,6.30
2017-08-01T16:50:01.499Z,5.60
2017-08-01T16:52:27.761Z,5.63
2017-08-01T16:54:54.020Z,5.40
2017-08-01T16:57:20.280Z,5.97
2017-08-01T16:59:46.580Z,6.10
2017-08-01T17:02:12.841Z,5.87
2017-08-01T17:04:39.102Z,7.00
2017-08-01T17:07:05.368Z,6.00
2017-08-01T17:09:31.625Z,7.10
2017-08-01T17:11:57.908Z,6.67
2017-08-01T17:14:24.917Z,6.50
2017-08-01T17:16:51.206Z,7.50
2017-08-01T17:19:17.500Z,7.30
2017-08-01T17:21:43.753Z,7.13
2017-08-01T17:24:10.029Z,9.00
2017-08-01T17:26:36.277Z,9.67
2017-08-01T17:29:02.533Z,9.57
2017-08-01T17:31:28.796Z,11.37
2017-08-01T17:33:55.049Z,10.60
2017-08-01T17:36:21.329Z,10.73
2017-08-01T17:38:47.585Z,9.93
2017-08-01T17:41:13.837Z,7.80
2017-08-01T17:43:40.086Z,8.30
2017-08-01T17:46:06.353Z,7.30
2017-08-01T17:48:32.622Z,7.30
2017-08-01T17:50:58.905Z,8.60
2017-08-01T17:53:25.165Z,9.40
2017-08-01T17:55:51.418Z,7.73
2017-08-01T17:58:17.689Z,8.60
2017-08-01T18:00:43.997Z,8.40
2017-08-01T18:03:10.988Z,7.67
2017-08-01T18:05:37.241Z,7.90
2017-08-01T18:08:03.488Z,8.60
2017-08-01T18:10:32.570Z,8.90
2017-08-01T18:12:58.853Z,8.60
2017-08-01T18:15:25.113Z,9.10
2017-08-01T18:17:51.369Z,9.30
2017-08-01T18:20:17.627Z,8.63
2017-08-01T18:22:44.882Z,8.53
2017-08-01T18:25:11.197Z,8.40
2017-08-01T18:27:38.181Z,9.33
2017-08-01T18:30:04.442Z,7.73
2017-08-01T18:32:31.024Z,8.00
2017-08-01T18:35:02.497Z,8.27
2017-08-01T18:37:29.858Z,9.00
2017-08-01T18:39:56.312Z,8.87
2017-08-01T18:42:22.561Z,8.83
2017-08-01T18:44:50.674Z,9.10
2017-08-01T18:47:17.482Z,9.20
2017-08-01T18:49:43.793Z,8.30
2017-08-01T18:52:10.163Z,9.70
2017-08-01T18:54:37.016Z,10.60
2017-08-01T18:57:03.339Z,8.80
2017-08-01T18:59:29.634Z,8.33
2017-08-01T19:01:57.253Z,12.00
2017-08-01T19:04:23.585Z,10.40
2017-08-01T19:06:49.917Z,8.77
2017-08-01T19:09:16.209Z,9.20
2017-08-01T19:11:42.459Z,9.80
2017-08-01T19:14:08.737Z,7.70
2017-08-01T19:16:35.003Z,5.40
2017-08-01T19:19:01.254Z,4.00
2017-08-01T19:21:27.549Z,3.30
2017-08-01T19:23:53.800Z,1.60
2017-08-01T19:26:20.142Z,1.60
2017-08-01T19:28:46.381Z,3.80
2017-08-01T19:31:12.636Z,3.60
2017-08-01T19:33:38.905Z,5.60
2017-08-01T19:36:06.320Z,5.60
2017-08-01T19:38:32.789Z,4.40
2017-08-01T19:40:59.299Z,5.00
2017-08-01T19:43:25.581Z,3.67
2017-08-01T19:45:52.001Z,3.47
2017-08-01T19:48:18.311Z,4.10
2017-08-01T19:50:44.651Z,3.83
2017-08-01T19:53:10.905Z,4.50
2017-08-01T19:55:37.171Z,3.53
2017-08-01T19:58:04.238Z,3.27
2017-08-01T20:00:30.501Z,3.30
2017-08-01T20:02:56.912Z,3.83
2017-08-01T20:05:23.193Z,3.73
2017-08-01T20:07:49.466Z,3.77
2017-08-01T20:10:15.779Z,3.70
2017-08-01T20:12:42.871Z,3.70
2017-08-01T20:15:09.166Z,4.17
2017-08-01T20:17:35.418Z,3.80
2017-08-01T20:20:01.669Z,4.17
2017-08-01T20:22:27.921Z,4.50
2017-08-01T20:24:54.614Z,4.17
2017-08-01T20:27:20.881Z,4.10
2017-08-01T20:29:47.133Z,4.83
2017-08-01T20:32:14.149Z,3.70
2017-08-01T20:34:40.413Z,5.57
2017-08-01T20:37:07.413Z,6.83
2017-08-01T20:39:34.714Z,5.10
2017-08-01T20:42:01.706Z,5.60
2017-08-01T20:44:27.958Z,4.80
2017-08-01T20:46:54.217Z,5.13
2017-08-01T20:49:21.212Z,4.23
2017-08-01T20:51:47.513Z,4.70
2017-08-01T20:54:13.773Z,4.30
2017-08-01T20:56:40.065Z,4.23
2017-08-01T20:59:06.309Z,5.23
2017-08-01T21:01:32.557Z,4.60
2017-08-01T21:03:58.821Z,4.90
2017-08-01T21:06:25.826Z,5.10
2017-08-01T21:08:52.077Z,5.00
2017-08-01T21:11:18.322Z,5.50
2017-08-01T21:13:44.572Z,5.33
2017-08-01T21:16:10.842Z,4.83
2017-08-01T21:18:37.149Z,5.20
2017-08-01T21:21:03.408Z,5.80
2017-08-01T21:23:29.662Z,5.67
2017-08-01T21:25:55.921Z,6.03
2017-08-01T21:28:22.189Z,6.63
2017-08-01T21:30:48.445Z,5.87
2017-08-01T21:33:14.697Z,6.47
2017-08-01T21:35:40.993Z,5.70
2017-08-01T21:38:08.265Z,6.43
2017-08-01T21:40:35.289Z,6.93
2017-08-01T21:43:01.556Z,5.90
2017-08-01T21:45:27.817Z,5.70
2017-08-01T21:47:54.072Z,6.53
2017-08-01T21:50:20.323Z,7.00
2017-08-01T21:52:47.348Z,6.77
2017-08-01T21:55:13.608Z,5.83
2017-08-01T21:57:40.597Z,6.73
2017-08-01T22:00:06.849Z,8.20
2017-08-01T22:02:33.101Z,9.17
2017-08-01T22:04:59.377Z,7.97
2017-08-01T22:07:25.661Z,8.30
2017-08-01T22:09:52.652Z,9.90
2017-08-01T22:12:18.969Z,9.20
2017-08-01T22:14:45.233Z,10.40
2017-08-01T22:17:11.494Z,8.43
2017-08-01T22:19:38.500Z,8.80
2017-08-01T22:22:04.774Z,9.30
2017-08-01T22:24:31.770Z,10.17
2017-08-01T22:26:58.021Z,9.50
2017-08-01T22:29:24.277Z,11.90
2017-08-01T22:31:50.542Z,10.80
2017-08-01T22:34:16.854Z,10.90
2017-08-01T22:36:43.113Z,10.60
2017-08-01T22:39:09.364Z,9.33
2017-08-01T22:41:35.624Z,10.77
2017-08-01T22:44:01.881Z,11.63
2017-08-01T22:46:29.205Z,10.97
2017-08-01T22:48:55.462Z,12.10
2017-08-01T22:51:21.724Z,10.90
2017-08-01T22:53:47.982Z,11.00
2017-08-01T22:56:14.976Z,10.60
2017-08-01T22:58:41.248Z,12.43
2017-08-01T23:01:08.240Z,12.97
2017-08-01T23:03:34.489Z,11.23
2017-08-01T23:06:00.743Z,11.33
2017-08-01T23:08:27.008Z,10.37
2017-08-01T23:10:53.289Z,10.20
2017-08-01T23:13:19.544Z,9.87
2017-08-01T23:15:46.541Z,9.90
2017-08-01T23:18:12.800Z,11.23
2017-08-01T23:20:39.061Z,10.30
2017-08-01T23:23:05.329Z,11.30
2017-08-01T23:25:31.580Z,11.50
2017-08-01T23:27:57.841Z,12.23
2017-08-01T23:30:24.109Z,12.07
2017-08-01T23:32:51.410Z,12.93
2017-08-01T23:35:18.420Z,13.77
2017-08-01T23:37:44.676Z,12.27
2017-08-01T23:40:11.681Z,12.57
2017-08-01T23:42:37.933Z,12.00
2017-08-01T23:45:04.181Z,14.23
2017-08-01T23:47:32.212Z,12.50
2017-08-01T23:49:58.467Z,12.43
2017-08-01T23:52:24.713Z,12.07
2017-08-01T23:54:51.713Z,11.83
2017-08-01T23:57:17.965Z,12.13
2017-08-01T23:59:44.249Z,10.40
